Pagrindinis puslapis
METAR-TAF:

METAR-TAF

Oro uostai :

Reyes, Bolivija

platuma: 14-19S, ilguma: 067-23W, Aukštis: 140 m

Dabartinis oras

Ataskaita buvo paskelbta 1 valandą ir 0 minutes, ne 14:00 UTC
Ramus vėjas
Temperatūra 29°C
Drėgmė 79%
Slėgis 1015 hPa
Matomumas 10 km arba daugiau
Mažai debesys ne aukštis 7000 ft

METAR: SLRY 251400Z 00000KT 9999 FEW070 29/25 Q1015

Laikas: 11:00 (15:00 UTC)


TAF: trūkstamas

Orai ataskaitas ir orų prognozės (METAR, TAF).

turimą stotys yra geltonos ir raudonos taškus žemėlapyje.

Perkelti pele per norėdami pamatyti stoties vardą.

Tada spustelėkite, norėdami matyti oro stebėjimo ir prognozės.

Norėdami pakeisti žemėlapį: spustelėkite ant žalios mygtukų su juodo kryžiaus žemyn,; žalią mygtuką su brūkšneliu, jei norite nutolinti; arba žalių rodyklių gretimoms žemėlapius.


METAR-TAF: